Time;durP1;ratioP1;P1;durP2;ratioP2;P2;SDS_P1;SDS_P2;PMS_P1;PMS_P2;Temp;Humidity;BMP_temperature;BMP_pressure;BME280_temperature;BME280_humidity;BME280_pressure;Samples;Min_cycle;Max_cycle;Signal;HPM_P1;HPM_P2
2023/03/19 00:02:12;;;;;;;;;;;;;;;5.77;54.47;100386.44;6334738;22;20298;-80
2023/03/19 00:04:38;;;;;;;1.45;1.35;;;;;;;5.20;54.24;100320.09;6333364;22;19985;-80
2023/03/19 00:07:03;;;;;;;;;;;;;;;5.59;54.11;100393.97;6335494;22;20008;-81
2023/03/19 00:09:29;;;;;;;;;;;;;;;5.59;54.79;100394.84;6335285;22;19910;-81
2023/03/19 00:11:55;;;;;;;1.90;1.83;;;;;;;5.05;54.70;100314.59;6333676;22;19982;-80
2023/03/19 00:14:20;;;;;;;;;;;;;;;5.59;54.08;100388.75;6335835;22;20007;-80
2023/03/19 00:16:46;;;;;;;1.25;1.25;;;;;;;4.90;54.37;100339.63;6334645;22;19906;-85
2023/03/19 00:19:11;;;;;;;;;;;;;;;5.18;55.23;100387.19;6334894;22;20370;-80
2023/03/19 00:21:37;;;;;;;2.25;1.65;;;;;;;4.66;55.16;100358.31;6334106;22;19906;-80
2023/03/19 00:24:02;;;;;;;;;;;;;;;5.02;55.58;100383.44;6336097;22;20084;-80
2023/03/19 00:26:29;;;;;;;2.72;2.53;;;;;;;4.58;55.21;100279.78;6334472;22;20019;-80
2023/03/19 00:28:56;;;;;;;1.38;1.27;;;;;;;4.05;55.69;100270.03;6333606;22;20003;-80
2023/03/19 00:31:22;;;;;;;8.40;6.75;;;;;;;4.15;56.27;100259.78;6334515;22;20013;-81
2023/03/19 00:33:48;;;;;;;4.10;3.40;;;;;;;4.46;55.57;100284.78;6334077;22;20453;-80
2023/03/19 00:36:15;;;;;;;;;;;;;;;5.30;55.36;100369.09;6335517;22;20111;-80
2023/03/19 00:38:42;;;;;;;1.08;1.05;;;;;;;5.05;54.92;100291.97;6332855;22;20234;-80
2023/03/19 00:41:07;;;;;;;2.50;1.50;;;;;;;5.06;55.12;100295.44;6307197;22;20003;-79
2023/03/19 00:43:32;;;;;;;;;;;;;;;5.39;54.82;100363.13;6334438;22;20429;-80
2023/03/19 00:45:59;;;;;;;;;;;;;;;5.35;55.40;100366.56;6334586;22;20266;-80
2023/03/19 00:48:25;;;;;;;1.83;1.73;;;;;;;5.05;54.83;100291.97;6333999;22;19914;-80
2023/03/19 00:50:50;;;;;;;;;;;;;;;5.52;55.16;100361.59;6334840;22;20360;-80
2023/03/19 00:53:16;;;;;;;2.85;2.72;;;;;;;4.76;55.24;100278.38;6334071;22;19973;-80
2023/03/19 00:55:41;;;;;;;;;;;;;;;5.04;56.07;100354.69;6333704;22;19999;-81
2023/03/19 00:58:09;;;;;;;3.83;2.22;;;;;;;4.28;56.62;100269.66;6333616;22;20375;-80
2023/03/19 01:00:35;;;;;;;2.40;2.30;;;;;;;4.11;57.46;100264.94;6333754;22;20430;-80
2023/03/19 01:03:02;;;;;;;5.45;3.97;;;;;;;4.72;57.73;100374.13;6306844;22;20010;-80
2023/03/19 01:05:28;;;;;;;2.30;1.95;;;;;;;4.36;58.98;100309.84;6334212;22;20009;-82
2023/03/19 01:07:53;;;;;;;;;;;;;;;4.73;58.70;100344.53;6335166;22;20081;-81
2023/03/19 01:10:21;;;;;;;2.40;2.30;;;;;;;4.58;58.27;100302.44;6306739;22;19913;-81
2023/03/19 01:12:47;;;;;;;10.15;4.20;;;;;;;4.83;58.42;100338.63;6307030;22;20006;-82
2023/03/19 01:15:12;;;;;;;;;;;;;;;4.94;57.80;100351.91;6334925;22;19999;-80
2023/03/19 01:17:38;;;;;;;9.02;2.95;;;;;;;4.32;58.04;100240.09;6334097;22;19938;-81
2023/03/19 01:20:07;;;;;;;;;;;;;;;5.14;57.41;100351.38;6335359;22;20002;-80
2023/03/19 01:22:35;;;;;;;2.63;2.47;;;;;;;4.24;58.69;100250.41;6334742;22;20027;-80
2023/03/19 01:25:01;;;;;;;2.00;1.88;;;;;;;4.39;58.48;100289.00;6335048;22;20002;-79
2023/03/19 01:27:26;;;;;;;;;;;;;;;4.78;59.56;100347.25;6334236;22;20090;-79
2023/03/19 01:29:52;;;;;;;3.03;2.70;;;;;;;4.57;59.80;100308.50;6306652;22;20014;-80
2023/03/19 01:32:17;;;;;;;;;;;;;;;4.84;59.51;100352.56;6334404;22;20025;-81
2023/03/19 01:34:43;;;;;;;;;;;;;;;4.86;59.63;100350.00;6335176;22;19981;-80
2023/03/19 01:37:08;;;;;;;5.15;3.97;;;;;;;4.73;58.64;100310.56;6333924;22;19918;-81
2023/03/19 01:39:34;;;;;;;;;;;;;;;4.94;58.53;100343.16;6334709;22;20052;-80
2023/03/19 01:42:03;;;;;;;2.22;2.13;;;;;;;4.39;58.61;100257.66;6334396;22;20324;-80
2023/03/19 01:44:31;;;;;;;3.63;3.42;;;;;;;4.39;58.18;100273.34;6305477;22;20010;-80
2023/03/19 01:47:00;;;;;;;2.40;2.30;;;;;;;4.32;58.18;100257.50;6333853;22;19998;-81
2023/03/19 01:49:27;;;;;;;2.45;2.30;;;;;;;4.58;58.39;100305.91;6332962;22;20513;-81
2023/03/19 01:51:54;;;;;;;13.25;4.60;;;;;;;4.99;57.92;100342.41;6334038;22;20025;-80
2023/03/19 01:54:23;;;;;;;2.78;2.58;;;;;;;4.33;57.95;100230.56;6334606;22;20100;-79
2023/03/19 01:56:54;;;;;;;3.13;2.80;;;;;;;4.69;57.94;100308.72;6335396;22;20038;-80
2023/03/19 01:59:35;;;;;;;3.65;2.53;;;;;;;4.44;58.75;100283.88;6335112;22;20019;-79
2023/03/19 02:02:06;;;;;;;4.60;3.28;;;;;;;4.72;58.23;100287.00;6335499;22;20014;-79
2023/03/19 02:04:34;;;;;;;3.03;2.78;;;;;;;4.48;58.31;100278.75;6336453;22;20044;-79
2023/03/19 02:07:02;;;;;;;2.72;2.53;;;;;;;4.57;58.77;100318.94;6335875;22;20011;-81
2023/03/19 02:09:28;;;;;;;2.83;2.63;;;;;;;4.91;58.54;100345.72;6334914;22;20003;-81
2023/03/19 02:11:56;;;;;;;3.83;2.33;;;;;;;5.04;58.16;100326.78;6308047;22;20344;-80
2023/03/19 02:14:22;;;;;;;3.30;2.95;;;;;;;5.02;58.48;100328.50;6336220;22;20003;-85
2023/03/19 02:16:47;;;;;;;;;;;;;;;5.42;58.19;100368.41;6331648;22;20014;-84
2023/03/19 02:19:20;;;;;;;1.92;1.67;;;;;;;4.92;57.64;100274.28;6333421;22;19906;-81
2023/03/19 02:21:47;;;;;;;11.65;4.15;;;;;;;4.85;56.89;100283.78;6334003;22;20010;-83
2023/03/19 02:24:25;;;;;;;4.57;4.05;;;;;;;5.20;56.25;100348.84;6335996;22;20003;-81
2023/03/19 02:26:51;;;;;;;3.53;3.13;;;;;;;4.98;57.29;100305.78;6336168;22;20003;-80
2023/03/19 02:29:16;;;;;;;3.25;2.88;;;;;;;5.23;56.90;100327.97;6307739;22;20007;-81
2023/03/19 02:31:42;;;;;;;;;;;;;;;5.41;56.53;100384.97;6336271;22;20049;-79
2023/03/19 02:34:22;;;;;;;2.97;2.78;;;;;;;5.46;56.21;100403.38;6334643;22;20343;-80
2023/03/19 02:36:53;;;;;;;2.10;1.98;;;;;;;5.32;55.96;100354.28;6307882;22;20453;-78
2023/03/19 02:39:45;;;;;;;4.07;2.90;;;;;;;5.10;56.78;100316.44;6308329;22;20060;-79
2023/03/19 02:42:13;;;;;;;4.63;3.90;;;;;;;4.96;57.05;100312.72;6336250;22;20418;-80
2023/03/19 02:44:39;;;;;;;3.33;3.03;;;;;;;4.81;57.00;100311.56;6335391;22;20338;-79
2023/03/19 02:47:04;;;;;;;;;;;;;;;5.12;57.51;100381.84;6335816;22;20003;-79
2023/03/19 02:49:30;;;;;;;;;;;;;;;5.21;57.44;100382.00;6308082;22;19991;-79
2023/03/19 02:51:56;;;;;;;4.13;2.88;;;;;;;5.14;57.14;100369.66;6335496;22;19914;-80
2023/03/19 02:54:21;;;;;;;12.40;2.75;;;;;;;5.05;57.04;100335.50;6334098;22;20068;-78
2023/03/19 02:56:47;;;;;;;;;;;;;;;5.34;57.02;100383.97;6335398;22;20101;-80
2023/03/19 02:59:13;;;;;;;2.90;2.72;;;;;;;5.14;56.86;100327.81;6334231;22;19910;-80
2023/03/19 03:01:39;;;;;;;;;;;;;;;5.67;56.67;100393.25;6307917;22;20063;-82
2023/03/19 03:04:04;;;;;;;2.58;2.35;;;;;;;5.23;55.58;100293.09;6334994;22;20381;-80
2023/03/19 03:06:30;;;;;;;;;;;;;;;5.89;55.50;100396.22;6334931;22;20387;-80
2023/03/19 03:08:55;;;;;;;6.53;3.17;;;;;;;5.22;55.05;100315.78;6334546;22;19906;-79
2023/03/19 03:11:21;;;;;;;;;;;;;;;5.74;55.52;100389.00;6335319;22;20009;-80
2023/03/19 03:13:47;;;;;;;6.28;4.93;;;;;;;5.23;56.11;100317.53;6334698;22;19909;-80
2023/03/19 03:16:12;;;;;;;;;;;;;;;5.65;56.00;100381.88;6335567;22;20086;-82
2023/03/19 03:18:38;;;;;;;2.15;2.03;;;;;;;5.09;55.57;100309.44;6334660;22;19997;-80
2023/03/19 03:21:03;;;;;;;;;;;;;;;5.81;55.41;100390.88;6335195;22;19999;-79
2023/03/19 03:23:29;;;;;;;3.75;3.55;;;;;;;5.06;55.20;100317.22;6334429;22;20229;-80
2023/03/19 03:25:54;;;;;;;;;;;;;;;5.55;54.95;100393.06;6335332;22;20086;-80
2023/03/19 03:28:19;;;;;;;;;;;;;;;5.77;55.40;100390.78;6334975;22;19944;-80
2023/03/19 03:30:45;;;;;;;1.77;1.67;;;;;;;5.40;55.21;100343.97;6334879;22;19914;-79
2023/03/19 03:33:11;;;;;;;;;;;;;;;5.87;55.67;100393.56;6307100;22;20587;-80
2023/03/19 03:35:37;;;;;;;5.30;3.95;;;;;;;5.53;55.76;100345.03;6335155;22;19914;-79
2023/03/19 03:38:03;;;;;;;;;;;;;;;5.92;55.50;100391.03;6335133;22;21004;-80
2023/03/19 03:40:29;;;;;;;4.05;2.47;;;;;;;5.28;55.17;100347.25;6336123;22;19911;-78
2023/03/19 03:42:54;;;;;;;;;;;;;;;5.86;55.11;100397.03;6336150;22;20347;-79
2023/03/19 03:45:19;;;;;;;2.47;2.35;;;;;;;5.55;54.74;100357.28;6335504;22;19968;-79
2023/03/19 03:47:45;;;;;;;;;;;;;;;5.90;55.29;100398.84;6336349;22;20003;-79
2023/03/19 03:50:11;;;;;;;4.30;4.03;;;;;;;5.49;55.36;100323.16;6335679;22;19902;-78
2023/03/19 03:52:37;;;;;;;1.83;1.73;;;;;;;5.69;54.46;100354.03;6335530;22;20394;-81
2023/03/19 03:55:03;;;;;;;6.60;3.05;;;;;;;5.36;54.59;100292.44;6335491;22;20052;-78
2023/03/19 03:57:29;;;;;;;;;;;;;;;6.07;54.62;100408.72;6335980;22;20002;-79
2023/03/19 03:59:54;;;;;;;2.20;2.10;;;;;;;5.57;54.88;100355.56;6307212;22;19906;-79
2023/03/19 04:02:20;;;;;;;;;;;;;;;5.71;55.85;100402.91;6335713;22;20090;-79
2023/03/19 04:04:46;;;;;;;;;;;;;;;5.76;56.33;100409.97;6335944;22;19910;-79
2023/03/19 04:07:12;;;;;;;2.70;1.92;;;;;;;5.38;56.36;100353.53;6334614;22;19960;-79
2023/03/19 04:09:37;;;;;;;;;;;;;;;5.84;55.94;100406.63;6335769;22;20063;-79
2023/03/19 04:12:03;;;;;;;4.03;2.13;;;;;;;5.46;55.88;100367.63;6335516;22;19906;-79
2023/03/19 04:14:28;;;;;;;;;;;;;;;5.83;56.32;100404.84;6335394;22;20413;-79
2023/03/19 04:16:53;;;;;;;3.10;2.90;;;;;;;5.64;56.11;100415.88;6334836;22;19911;-78
2023/03/19 04:19:19;;;;;;;;;;;;;;;5.80;55.15;100406.53;6336107;22;20499;-77
2023/03/19 04:21:45;;;;;;;3.55;3.33;;;;;;;5.01;55.30;100317.16;6335314;22;19978;-80
2023/03/19 04:24:11;;;;;;;2.72;2.55;;;;;;;4.63;55.61;100278.16;6335625;22;19999;-79
2023/03/19 04:26:37;;;;;;;;;;;;;;;5.32;55.83;100406.63;6334945;22;20357;-81
2023/03/19 04:29:02;;;;;;;1.13;1.13;;;;;;;4.69;56.27;100345.31;6335595;22;20071;-78
2023/03/19 04:31:28;;;;;;;;;;;;;;;5.14;56.15;100401.97;6336094;22;20041;-80
2023/03/19 04:33:54;;;;;;;1.63;1.52;;;;;;;4.58;55.53;100321.59;6335247;22;19955;-80
2023/03/19 04:36:20;;;;;;;;;;;;;;;5.13;55.88;100407.16;6334999;22;20393;-80
2023/03/19 04:38:45;;;;;;;1.88;1.77;;;;;;;4.93;54.94;100380.63;6307417;22;19910;-79
2023/03/19 04:41:12;;;;;;;;;;;;;;;5.05;55.20;100417.47;6335449;22;20006;-87
2023/03/19 04:43:38;;;;;;;2.05;1.95;;;;;;;4.80;54.81;100312.44;6307279;22;19906;-80
2023/03/19 04:46:04;;;;;;;;;;;;;;;5.45;54.40;100431.25;6336000;22;20059;-81
2023/03/19 04:48:31;;;;;;;2.65;2.38;;;;;;;5.39;53.77;100373.59;6306905;22;20260;-81
2023/03/19 04:50:57;;;;;;;5.63;2.88;;;;;;;5.20;53.27;100318.38;6335526;22;19998;-80
2023/03/19 04:53:23;;;;;;;;;;;;;;;5.94;53.99;100430.34;6335783;22;20353;-80
2023/03/19 04:55:50;;;;;;;2.75;2.55;;;;;;;5.34;54.10;100318.56;6335211;22;19921;-81
2023/03/19 04:58:15;;;;;;;4.53;2.67;;;;;;;5.67;53.66;100350.47;6335486;22;20014;-80
2023/03/19 05:00:41;;;;;;;;;;;;;;;5.90;53.77;100422.44;6335659;22;20028;-79
2023/03/19 05:03:06;;;;;;;;;;;;;;;5.88;54.46;100424.13;6334921;22;19956;-81
2023/03/19 05:05:32;;;;;;;5.10;3.95;;;;;;;5.40;54.32;100367.50;6334550;22;19906;-80
2023/03/19 05:07:57;;;;;;;;;;;;;;;5.91;54.82;100425.91;6335676;22;20369;-85
2023/03/19 05:10:23;;;;;;;3.13;2.67;;;;;;;5.69;54.54;100396.78;6306948;22;20363;-78
2023/03/19 05:12:49;;;;;;;3.80;3.50;;;;;;;5.63;55.14;100367.88;6334833;22;20449;-78
2023/03/19 05:15:15;;;;;;;;;;;;;;;6.04;55.32;100445.34;6335143;22;19999;-78
2023/03/19 05:17:41;;;;;;;2.60;2.40;;;;;;;5.74;54.60;100437.00;6334356;22;19906;-78
2023/03/19 05:20:08;;;;;;;1.95;1.85;;;;;;;5.48;54.02;100360.66;6335294;22;20109;-79
2023/03/19 05:22:33;;;;;;;3.42;3.13;;;;;;;5.57;53.53;100412.28;6335296;22;19999;-79
2023/03/19 05:24:59;;;;;;;;;;;;;;;5.93;55.11;100453.00;6335003;22;20407;-79
2023/03/19 05:27:24;;;;;;;;;;;;;;;6.00;54.52;100449.66;6335373;22;19997;-79
2023/03/19 05:29:50;;;;;;;3.83;3.47;;;;;;;5.40;54.48;100350.94;6335426;22;19906;-79
2023/03/19 05:32:15;;;;;;;;;;;;;;;6.12;54.13;100456.84;6336905;22;19999;-79
2023/03/19 05:34:41;;;;;;;1.77;1.70;;;;;;;5.52;55.00;100352.00;6337241;22;19912;-79
2023/03/19 05:37:07;;;;;;;1.85;1.75;;;;;;;5.74;55.28;100376.78;6336669;22;20003;-79
2023/03/19 05:39:33;;;;;;;2.22;2.05;;;;;;;6.20;54.45;100421.16;6337416;22;19999;-80
2023/03/19 05:41:58;;;;;;;;;;;;;;;6.43;53.10;100467.78;6337740;22;20086;-80
2023/03/19 05:44:23;;;;;;;1.52;1.42;;;;;;;5.70;54.81;100350.53;6336844;22;20031;-79
2023/03/19 05:46:49;;;;;;;;;;;;;;;6.25;55.13;100465.75;6336311;22;20010;-80
2023/03/19 05:49:15;;;;;;;2.63;2.42;;;;;;;6.26;53.80;100457.06;6336974;22;19906;-79
2023/03/19 05:51:40;;;;;;;;;;;;;;;6.13;54.37;100450.72;6336905;22;20090;-79
2023/03/19 05:54:05;;;;;;;4.03;3.72;;;;;;;5.63;54.21;100407.16;6335754;22;19909;-79
2023/03/19 05:56:32;;;;;;;;;;;;;;;5.93;54.12;100460.84;6336813;22;20409;-78
2023/03/19 05:58:57;;;;;;;1.20;1.20;;;;;;;6.29;54.37;100472.81;6336985;22;19960;-79
2023/03/19 06:01:23;;;;;;;;;;;;;;;6.50;53.17;100460.88;6337004;22;20007;-79
2023/03/19 06:03:48;;;;;;;2.10;1.90;;;;;;;5.82;53.06;100348.09;6336725;22;19907;-79
2023/03/19 06:06:14;;;;;;;;;;;;;;;6.48;53.17;100457.34;6337151;22;20002;-79
2023/03/19 06:08:41;;;;;;;1.58;1.48;;;;;;;5.97;52.18;100427.78;6335984;22;19911;-79
2023/03/19 06:11:07;;;;;;;2.20;1.88;;;;;;;5.79;52.54;100407.41;6336324;22;20334;-78
2023/03/19 06:13:33;;;;;;;2.42;2.25;;;;;;;5.80;52.51;100402.19;6334570;22;20492;-83
2023/03/19 06:15:59;;;;;;;;;;;;;;;6.56;51.28;100472.31;6335138;22;19998;-78
2023/03/19 06:18:25;;;;;;;2.38;2.15;;;;;;;6.59;51.23;100488.09;6308134;22;20230;-80
2023/03/19 06:20:51;;;;;;;;;;;;;;;6.35;51.29;100466.75;6336675;22;20003;-78
2023/03/19 06:23:17;;;;;;;1.13;0.75;;;;;;;5.92;50.09;100397.13;6335582;22;19918;-79
2023/03/19 06:25:42;;;;;;;;;;;;;;;6.26;50.48;100468.41;6336584;22;20010;-78
2023/03/19 06:28:08;;;;;;;3.20;2.15;;;;;;;6.29;49.85;100433.50;6336176;22;20228;-77
2023/03/19 06:30:33;;;;;;;;;;;;;;;6.93;49.51;100472.78;6336368;22;20025;-78
2023/03/19 06:32:59;;;;;;;;;;;;;;;6.92;48.61;100471.06;6333931;22;20013;-77
2023/03/19 06:35:25;;;;;;;1.20;1.20;;;;;;;6.56;48.42;100432.13;6335768;22;19906;-78
2023/03/19 06:37:51;;;;;;;2.78;1.80;;;;;;;6.81;49.43;100417.56;6307994;22;20408;-80
2023/03/19 06:40:17;;;;;;;;;;;;;;;7.65;48.05;100469.19;6334991;22;20052;-81
2023/03/19 06:42:46;;;;;;;1.48;1.38;;;;;;;7.95;47.17;100436.16;6334138;22;19906;-79
2023/03/19 06:45:15;;;;;;;1.45;1.35;;;;;;;7.85;46.36;100429.97;6335272;22;20461;-79
2023/03/19 06:47:42;;;;;;;1.45;1.35;;;;;;;7.42;45.37;100366.59;6333696;22;20045;-80
2023/03/19 06:50:09;;;;;;;3.42;3.20;;;;;;;7.78;45.86;100355.47;6280564;22;19999;-80
2023/03/19 06:52:35;;;;;;;5.72;2.25;;;;;;;7.85;45.69;100395.81;6333808;22;20033;-79
2023/03/19 06:55:00;;;;;;;;;;;;;;;8.23;46.23;100463.53;6333799;22;20349;-79
2023/03/19 06:57:26;;;;;;;0.88;0.88;;;;;;;8.04;43.71;100417.84;6332997;22;19979;-80
2023/03/19 06:59:52;;;;;;;;;;;;;;;8.55;44.97;100465.50;6334673;22;20437;-84
2023/03/19 07:02:17;;;;;;;0.93;0.82;;;;;;;8.33;42.87;100410.13;6334660;22;19913;-82
2023/03/19 07:04:42;;;;;;;;;;;;;;;8.82;43.51;100454.25;6336363;22;20059;-79
2023/03/19 07:07:08;;;;;;;;;;;;;;;8.81;43.42;100449.84;6335361;22;19956;-84
2023/03/19 07:09:33;;;;;;;1.23;1.23;;;;;;;8.41;43.43;100384.75;6307772;22;19959;-83
2023/03/19 07:11:59;;;;;;;;;;;;;;;9.41;43.87;100450.03;6336055;22;20229;-82
2023/03/19 07:14:24;;;;;;;1.20;1.10;;;;;;;9.33;42.47;100375.44;6307539;22;19911;-82
2023/03/19 07:16:50;;;;;;;;;;;;;;;9.78;42.42;100451.84;6335599;22;20041;-82
2023/03/19 07:19:15;;;;;;;2.15;1.13;;;;;;;9.62;42.85;100362.28;6335714;22;19929;-82
2023/03/19 07:21:41;;;;;;;;;;;;;;;10.70;40.51;100448.19;6336160;22;20009;-81
2023/03/19 07:24:06;;;;;;;;;;;;;;;10.40;40.88;100447.41;6335574;22;19910;-84
2023/03/19 07:26:32;;;;;;;1.40;1.35;;;;;;;9.86;40.46;100402.66;6334540;22;20012;-85
2023/03/19 07:28:57;;;;;;;;;;;;;;;10.43;40.42;100447.41;6333585;22;20010;-85
2023/03/19 07:31:22;;;;;;;;;;;;;;;10.52;39.84;100443.88;6334444;22;19933;-84
2023/03/19 07:33:48;;;;;;;0.77;0.77;;;;;;;10.57;40.30;100394.59;6332462;22;19977;-87
2023/03/19 07:36:13;;;;;;;;;;;;;;;11.27;40.59;100443.53;6334949;22;19999;-85
2023/03/19 07:38:42;;;;;;;;;;;;;;;11.38;38.04;100439.94;6333777;22;19915;-85
2023/03/19 07:41:07;;;;;;;0.55;0.55;;;;;;;11.25;38.36;100368.72;6306633;22;19989;-85
2023/03/19 07:43:33;;;;;;;;;;;;;;;12.29;40.10;100434.81;6307489;22;20521;-83
2023/03/19 07:45:59;;;;;;;;;;;;;;;12.29;36.64;100426.88;6306508;22;19902;-82
2023/03/19 07:48:25;;;;;;;2.95;1.63;;;;;;;12.34;36.84;100347.44;6334207;22;19906;-82
2023/03/19 07:54:14;;;;;;;0.82;0.82;;;;;;;12.13;39.49;100338.88;6156615;23;19931;-93
2023/03/19 07:56:45;;;;;;;0.68;0.68;;;;;;;13.37;37.02;100438.81;6178811;23;20471;-86
2023/03/19 07:59:11;;;;;;;4.38;1.35;;;;;;;13.22;35.25;100359.50;6179157;23;20383;-89
2023/03/19 08:01:36;;;;;;;;;;;;;;;13.88;36.27;100423.88;6153948;23;20063;-86
2023/03/19 08:04:23;;;;;;;1.95;1.85;;;;;;;13.46;35.89;100423.69;6179276;23;19908;-85
2023/03/19 08:06:49;;;;;;;1.98;1.88;;;;;;;12.21;36.57;100346.72;6179836;23;20005;-84
2023/03/19 08:12:54;;;;;;;1.25;1.17;;;;;;;13.96;35.68;100408.69;6177595;23;20283;-84
2023/03/19 08:15:23;;;;;;;3.33;2.15;;;;;;;12.77;35.54;100359.28;6177856;23;20009;-86
2023/03/19 08:21:01;;;;;;;0.93;0.90;;;;;;;13.54;35.74;100384.66;6090236;23;20122;-84
2023/03/19 08:23:43;;;;;;;1.90;1.77;;;;;;;13.66;34.80;100350.00;6090873;23;20082;-84
2023/03/19 08:27:07;;;;;;;2.03;1.45;;;;;;;14.66;35.03;100403.00;6090094;23;20006;-86
2023/03/19 08:30:11;;;;;;;1.50;1.40;;;;;;;14.42;34.53;100399.88;6121092;23;20493;-84
2023/03/19 08:32:44;;;;;;;0.57;0.57;;;;;;;13.48;34.41;100332.63;6209964;23;20000;-85
2023/03/19 08:35:43;;;;;;;0.88;0.85;;;;;;;14.36;32.91;100399.16;6207403;23;20418;-85
2023/03/19 08:38:18;;;;;;;1.02;0.90;;;;;;;13.78;33.87;100323.28;6208807;23;20008;-86
2023/03/19 08:41:00;;;;;;;;;;;;;;;14.34;34.51;100391.22;6209764;23;20107;-84
2023/03/19 08:43:44;;;;;;;0.63;0.63;;;;;;;14.24;32.33;100325.94;6209344;23;19966;-84
2023/03/19 08:46:32;;;;;;;;;;;;;;;;;;;;;
2023/03/19 08:49:12;;;;;;;1.27;1.13;;;;;;;13.59;31.58;100308.59;6208919;23;20200;-83
2023/03/19 08:54:51;;;;;;;3.65;1.27;;;;;;;14.38;34.03;100299.13;6209186;23;20005;-82
2023/03/19 08:57:22;;;;;;;1.15;1.05;;;;;;;14.28;31.65;100294.00;6231974;22;20037;-84
2023/03/19 08:59:48;;;;;;;1.00;0.95;;;;;;;14.59;31.61;100303.97;6335594;22;20381;-84
2023/03/19 09:02:19;;;;;;;0.93;0.85;;;;;;;14.27;30.73;100323.22;6335198;22;20010;-83
2023/03/19 09:04:44;;;;;;;0.70;0.70;;;;;;;14.30;30.55;100315.22;6336504;22;20006;-81
2023/03/19 09:07:15;;;;;;;0.85;0.75;;;;;;;14.67;30.77;100288.81;6336286;22;20376;-85
2023/03/19 09:09:42;;;;;;;0.65;0.65;;;;;;;14.39;30.82;100295.56;6336279;22;20037;-86
2023/03/19 09:12:12;;;;;;;2.03;1.02;;;;;;;14.27;31.91;100272.81;6335648;22;20016;-84
2023/03/19 09:14:44;;;;;;;1.65;1.35;;;;;;;14.09;30.92;100245.78;6335948;22;20445;-82
2023/03/19 09:17:10;;;;;;;9.68;8.77;;;;;;;14.79;32.43;100300.03;6336816;22;20003;-81
2023/03/19 09:19:40;;;;;;;12.68;7.65;;;;;;;14.96;32.49;100258.00;6335531;22;20002;-82
2023/03/19 09:22:06;;;;;;;44.40;34.63;;;;;;;15.17;30.31;100288.50;6336573;22;20348;-84
2023/03/19 09:24:32;;;;;;;332.35;269.00;;;;;;;15.22;32.47;100246.75;6336260;22;19999;-83
2023/03/19 09:27:12;;;;;;;;;;;;;;;15.96;30.11;100341.47;6335122;22;19999;-84
2023/03/19 09:29:43;;;;;;;19.92;17.75;;;;;;;14.80;30.79;100297.34;6336810;22;19906;-86
2023/03/19 09:32:08;;;;;;;2.03;0.90;;;;;;;14.46;31.13;100299.84;6336147;22;20082;-82
2023/03/19 09:34:34;;;;;;;0.45;0.45;;;;;;;14.51;30.60;100280.25;6335551;22;20441;-84
2023/03/19 09:36:59;;;;;;;;;;;;;;;14.98;30.62;100327.03;6336421;22;20292;-84
2023/03/19 09:39:25;;;;;;;1.23;1.15;;;;;;;14.47;31.35;100281.25;6335333;22;19911;-82
2023/03/19 09:42:21;;;;;;;1.25;1.15;;;;;;;15.12;32.81;100324.97;6335321;22;20510;-84
2023/03/19 09:44:47;;;;;;;0.45;0.45;;;;;;;15.13;31.47;100243.47;6335770;22;20037;-86
2023/03/19 09:47:27;;;;;;;0.50;0.50;;;;;;;15.93;30.48;100308.72;6307704;22;19998;-89
2023/03/19 09:50:22;;;;;;;1.67;1.48;;;;;;;15.12;31.05;100306.38;6309758;22;20096;-87
2023/03/19 09:52:50;;;;;;;0.80;0.80;;;;;;;14.85;32.15;100222.88;6309413;22;20007;-85
2023/03/19 09:55:38;;;;;;;0.70;0.70;;;;;;;15.08;33.13;100302.03;6336170;22;20002;-85
2023/03/19 09:58:13;;;;;;;1.45;0.85;;;;;;;15.34;33.88;100219.00;6334499;22;20011;-85
2023/03/19 10:00:39;;;;;;;0.82;0.82;;;;;;;15.52;31.55;100283.22;6336192;22;20030;-79
2023/03/19 10:03:30;;;;;;;4.32;1.60;;;;;;;15.45;31.98;100226.69;6334934;22;20445;-80
2023/03/19 10:06:26;;;;;;;0.95;0.95;;;;;;;16.05;32.23;100296.88;6335463;22;20025;-81
2023/03/19 10:09:32;;;;;;;3.50;2.03;;;;;;;15.49;31.77;100232.78;6335369;22;20003;-82
2023/03/19 10:12:11;;;;;;;1.85;1.38;;;;;;;15.75;34.73;100243.59;6179835;23;20037;-83
2023/03/19 10:15:17;;;;;;;;;;;;;;;;;;;;;
2023/03/19 10:18:01;;;;;;;1.85;1.73;;;;;;;16.53;32.56;100268.00;6179631;23;20244;-87
2023/03/19 10:20:41;;;;;;;1.35;1.25;;;;;;;15.82;32.77;100185.81;6179304;23;20096;-81
2023/03/19 10:23:25;;;;;;;1.75;1.65;;;;;;;16.22;33.32;100223.66;6179064;23;20009;-81
2023/03/19 10:25:54;;;;;;;1.02;1.00;;;;;;;16.38;32.84;100181.50;6179589;23;20044;-81
2023/03/19 10:28:21;;;;;;;0.85;0.80;;;;;;;16.42;33.31;100215.06;6154906;23;20048;-82
2023/03/19 10:31:10;;;;;;;8.68;2.25;;;;;;;16.73;34.23;100241.63;6180449;23;20005;-84
2023/03/19 10:33:45;;;;;;;1.52;1.42;;;;;;;15.76;34.65;100149.56;6095459;23;20021;-83
2023/03/19 10:36:14;;;;;;;1.90;1.75;;;;;;;15.96;34.25;100141.94;6120691;23;20063;-84
2023/03/19 10:38:41;;;;;;;0.65;0.65;;;;;;;16.26;32.94;100172.09;6118527;23;20017;-84
2023/03/19 10:41:26;;;;;;;4.68;1.10;;;;;;;17.04;31.95;100222.00;6120390;23;20093;-83
2023/03/19 10:43:59;;;;;;;1.95;1.33;;;;;;;16.13;32.25;100120.13;6095386;23;20373;-83
2023/03/19 10:46:25;;;;;;;12.70;2.30;;;;;;;16.31;32.76;100185.25;6130796;23;20035;-82
2023/03/19 10:48:50;;;;;;;2.20;1.60;;;;;;;16.30;33.52;100160.44;6239438;23;20374;-81
2023/03/19 10:51:22;;;;;;;1.13;1.02;;;;;;;16.14;33.57;100137.84;6234799;23;20015;-81
2023/03/19 10:53:51;;;;;;;2.75;1.17;;;;;;;16.14;32.85;100153.81;6239058;23;20048;-81
2023/03/19 10:56:32;;;;;;;2.42;1.13;;;;;;;16.03;33.37;100138.19;6238937;23;20008;-81
2023/03/19 10:59:24;;;;;;;1.70;0.80;;;;;;;16.17;33.32;100145.75;6239304;23;20030;-80
2023/03/19 11:01:58;;;;;;;0.73;0.57;;;;;;;16.10;34.72;100115.81;6239136;23;20043;-81
2023/03/19 11:04:26;;;;;;;0.63;0.40;;;;;;;15.60;34.07;100095.13;6239584;23;20007;-85
2023/03/19 11:07:01;;;;;;;1.75;1.23;;;;;;;15.87;33.91;100121.81;6214382;23;20396;-80
2023/03/19 11:09:32;;;;;;;0.95;0.93;;;;;;;16.38;34.68;100182.34;6240802;22;20011;-81
2023/03/19 11:12:05;;;;;;;2.60;1.13;;;;;;;15.98;34.98;100081.59;6303898;22;20101;-81
2023/03/19 11:14:37;;;;;;;0.35;0.35;;;;;;;16.43;36.64;100119.16;6276052;22;20458;-81
2023/03/19 11:17:14;;;;;;;0.57;0.57;;;;;;;16.09;35.04;100084.78;6301456;22;20037;-83
2023/03/19 11:19:42;;;;;;;0.80;0.80;;;;;;;16.23;34.85;100093.19;6302950;22;20041;-81
2023/03/19 11:22:19;;;;;;;0.52;0.52;;;;;;;16.73;34.74;100155.50;6303433;22;20468;-80
2023/03/19 11:25:13;;;;;;;2.50;1.52;;;;;;;16.36;33.87;100074.16;6300698;22;20056;-82
2023/03/19 11:27:39;;;;;;;0.20;0.20;;;;;;;16.39;33.24;100098.91;6302929;22;20035;-83
2023/03/19 11:30:16;;;;;;;1.60;1.27;;;;;;;16.84;32.95;100102.75;6303644;22;20026;-81
2023/03/19 11:32:44;;;;;;;1.80;1.63;;;;;;;17.06;32.75;100139.34;6303657;22;20007;-80
2023/03/19 11:35:30;;;;;;;1.42;0.98;;;;;;;16.59;32.95;100060.97;6303736;22;20010;-81
2023/03/19 11:37:59;;;;;;;3.38;1.92;;;;;;;16.70;35.12;100089.00;6303511;22;20015;-83
2023/03/19 11:40:46;;;;;;;1.10;1.00;;;;;;;17.32;33.35;100112.63;6303582;22;19999;-82
2023/03/19 11:43:37;;;;;;;1.23;1.13;;;;;;;16.56;33.22;100009.59;6303718;22;20438;-85
2023/03/19 11:46:12;;;;;;;0.63;0.63;;;;;;;16.81;32.85;100050.44;6304455;22;20446;-84
2023/03/19 11:48:41;;;;;;;1.55;1.45;;;;;;;17.40;33.03;100116.81;6304529;22;20000;-84
2023/03/19 11:51:16;;;;;;;0.75;0.55;;;;;;;16.85;33.18;100024.53;6304813;22;20007;-82
2023/03/19 11:54:04;;;;;;;1.27;1.17;;;;;;;17.21;33.73;100101.47;6304884;22;20064;-81
2023/03/19 11:56:34;;;;;;;1.85;1.13;;;;;;;16.80;34.05;100107.28;6304674;22;20037;-83
2023/03/19 11:59:18;;;;;;;1.52;0.82;;;;;;;17.07;33.73;100103.75;6323747;22;20521;-86
2023/03/19 12:02:29;;;;;;;0.98;0.73;;;;;;;17.26;33.10;100099.50;6305529;22;20037;-85
2023/03/19 12:05:45;;;;;;;1.48;0.80;;;;;;;17.33;32.96;100105.47;6307319;22;20352;-85
2023/03/19 12:08:42;;;;;;;1.55;1.20;;;;;;;17.32;33.24;100077.97;6307622;22;20356;-87
2023/03/19 12:11:25;;;;;;;0.95;0.60;;;;;;;17.24;34.33;100096.03;6335703;22;20034;-85
2023/03/19 12:14:07;;;;;;;0.38;0.38;;;;;;;17.09;35.59;100025.50;6334750;22;20011;-87
2023/03/19 12:16:51;;;;;;;1.33;1.23;;;;;;;17.08;32.50;99990.91;6335204;22;20007;-85
2023/03/19 12:19:35;;;;;;;1.05;1.00;;;;;;;17.98;32.35;100100.41;6335535;22;20139;-89